This is the latest recevied weather packets stored in our database for station/object DC8RAI-12. If no packets are shown the sender has not sent any weather packets the latest 10 day(s).
| Time | Temp. | Humidity | Pressure | Rain* | Wind** | Luminosity | Snow |
|---|---|---|---|---|---|---|---|
| 1777841998 | 16.11° C | 53% | 1013.2 hPa | - | - | - | - |
| 1777841098 | 16.67° C | 53% | 1013.2 hPa | - | - | - | - |
| 1777836597 | 19.44° C | 46% | 1012.7 hPa | - | - | - | - |
| 1777827599 | 25.56° C | 36% | 1011.3 hPa | - | - | - | - |
| 1777820398 | 29.44° C | 25% | 1011.1 hPa | - | - | - | - |
| 1777814097 | 30.56° C | 22% | 1012.1 hPa | - | - | - | - |
| 1777802397 | 24.44° C | 33% | 1015.1 hPa | - | - | - | - |
| 1777800596 | 23.33° C | 31% | 1015.5 hPa | - | - | - | - |
| 1777799696 | 22.22° C | 33% | 1015.6 hPa | - | - | - | - |
| 1777798796 | 22.22° C | 35% | 1015.7 hPa | - | - | - | - |
| 1777796996 | 20.56° C | 39% | 1016 hPa | - | - | - | - |
| 1777796096 | 19.44° C | 41% | 1016.2 hPa | - | - | - | - |
| 1777795196 | 19.44° C | 40% | 1016.3 hPa | - | - | - | - |
| 1777794296 | 18.33° C | 41% | 1016.4 hPa | - | - | - | - |
| 1777793395 | 17.22° C | 43% | 1016.3 hPa | - | - | - | - |
| 1777792495 | 17.22° C | 46% | 1016.4 hPa | - | - | - | - |
| 1777791595 | 16.11° C | 46% | 1016.6 hPa | - | - | - | - |
| 1777789799 | 14.44° C | 49% | 1016.7 hPa | - | - | - | - |
| 1777788899 | 12.78° C | 65% | 1016.7 hPa | - | - | - | - |
| 1777787999 | 11.67° C | 65% | 1016.7 hPa | - | - | - | - |
| 1777787099 | 11.11° C | 66% | 1016.7 hPa | - | - | - | - |
| 1777786199 | 10° C | 67% | 1016.8 hPa | - | - | - | - |
| 1777785298 | 8.89° C | 71% | 1016.7 hPa | - | - | - | - |
| 1777784398 | 7.78° C | 72% | 1016.8 hPa | - | - | - | - |
| 1777783498 | 7.22° C | 71% | 1016.8 hPa | - | - | - | - |
* Rain since midnight (hover to see other rain measurements)
** Current wind speed in m/s (hover to see current wind gust speed)